createdAt,value
2023-03-18T00:00:11.953Z,2.88
2023-03-18T00:02:40.404Z,3.03
2023-03-18T00:05:08.915Z,2.75
2023-03-18T00:07:37.315Z,2.55
2023-03-18T00:10:06.324Z,2.80
2023-03-18T00:12:33.154Z,2.75
2023-03-18T00:15:00.911Z,3.03
2023-03-18T00:17:27.669Z,3.13
2023-03-18T00:19:55.257Z,3.17
2023-03-18T00:22:21.911Z,2.80
2023-03-18T00:24:49.006Z,2.97
2023-03-18T00:27:16.075Z,3.17
2023-03-18T00:29:42.844Z,2.70
2023-03-18T00:32:09.921Z,3.40
2023-03-18T00:34:36.545Z,2.95
2023-03-18T00:37:03.616Z,3.03
2023-03-18T00:39:33.042Z,2.75
2023-03-18T00:42:08.112Z,2.70
2023-03-18T00:44:34.670Z,2.83
2023-03-18T00:47:01.468Z,2.92
2023-03-18T00:49:28.391Z,3.28
2023-03-18T00:51:54.979Z,2.88
2023-03-18T00:54:22.454Z,3.42
2023-03-18T00:56:49.698Z,3.20
2023-03-18T00:59:16.643Z,3.03
2023-03-18T01:01:43.337Z,3.08
2023-03-18T01:04:10.487Z,2.85
2023-03-18T01:06:38.556Z,3.10
2023-03-18T01:09:08.893Z,3.05
2023-03-18T01:11:36.160Z,3.13
2023-03-18T01:14:03.713Z,3.22
2023-03-18T01:16:30.523Z,2.75
2023-03-18T01:18:57.421Z,3.25
2023-03-18T01:21:24.169Z,2.85
2023-03-18T01:23:53.454Z,3.60
2023-03-18T01:26:20.081Z,2.90
2023-03-18T01:28:47.264Z,2.83
2023-03-18T01:31:13.898Z,3.28
2023-03-18T01:33:41.493Z,3.08
2023-03-18T01:36:08.822Z,3.47
2023-03-18T01:38:35.536Z,3.00
2023-03-18T01:41:02.496Z,3.35
2023-03-18T01:43:33.786Z,3.25
2023-03-18T01:46:02.517Z,3.65
2023-03-18T01:48:33.180Z,3.47
2023-03-18T01:51:05.312Z,3.15
2023-03-18T01:53:36.647Z,3.30
2023-03-18T01:56:03.921Z,3.70
2023-03-18T01:58:36.700Z,3.55
2023-03-18T02:01:20.055Z,3.78
2023-03-18T02:03:48.231Z,3.15
2023-03-18T02:06:14.777Z,3.50
2023-03-18T02:08:41.242Z,3.50
2023-03-18T02:11:10.181Z,3.70
2023-03-18T02:13:42.516Z,3.40
2023-03-18T02:16:21.734Z,4.10
2023-03-18T02:18:51.927Z,3.83
2023-03-18T02:21:40.721Z,3.72
2023-03-18T02:24:24.655Z,3.40
2023-03-18T02:27:17.003Z,3.92
2023-03-18T02:29:44.530Z,4.00
2023-03-18T02:32:12.339Z,3.38
2023-03-18T02:34:40.830Z,4.18
2023-03-18T02:37:11.295Z,3.63
2023-03-18T02:39:37.716Z,3.78
2023-03-18T02:42:04.267Z,3.70
2023-03-18T02:44:31.478Z,3.80
2023-03-18T02:47:02.870Z,3.67
2023-03-18T02:49:30.200Z,3.53
2023-03-18T02:51:56.839Z,4.22
2023-03-18T02:54:27.484Z,3.75
2023-03-18T02:56:54.350Z,3.70
2023-03-18T02:59:21.934Z,4.03
2023-03-18T03:01:51.491Z,3.75
2023-03-18T03:04:21.692Z,4.10
2023-03-18T03:06:48.125Z,3.97
2023-03-18T03:09:16.489Z,3.78
2023-03-18T03:11:45.199Z,4.07
2023-03-18T03:14:12.839Z,4.10
2023-03-18T03:16:39.276Z,3.70
2023-03-18T03:19:06.281Z,3.75
2023-03-18T03:21:35.761Z,4.03
2023-03-18T03:24:06.053Z,4.20
2023-03-18T03:26:33.647Z,4.22
2023-03-18T03:29:00.559Z,3.90
2023-03-18T03:31:27.340Z,3.65
2023-03-18T03:33:53.849Z,3.65
2023-03-18T03:36:20.331Z,3.83
2023-03-18T03:38:47.015Z,3.72
2023-03-18T03:41:13.742Z,3.88
2023-03-18T03:43:41.288Z,4.03
2023-03-18T03:46:09.547Z,3.80
2023-03-18T03:48:36.940Z,4.05
2023-03-18T03:51:03.726Z,3.80
2023-03-18T03:53:30.158Z,3.85
2023-03-18T03:55:59.081Z,4.00
2023-03-18T03:58:26.310Z,4.53
2023-03-18T04:00:52.778Z,4.18
2023-03-18T04:03:19.634Z,4.75
2023-03-18T04:05:46.108Z,3.83
2023-03-18T04:08:12.544Z,3.55
2023-03-18T04:10:39.241Z,3.80
2023-03-18T04:13:07.261Z,3.55
2023-03-18T04:15:34.166Z,3.60
2023-03-18T04:18:06.533Z,4.45
2023-03-18T04:20:34.721Z,4.20
2023-03-18T04:23:01.354Z,4.00
2023-03-18T04:25:27.849Z,4.38
2023-03-18T04:27:54.309Z,4.55
2023-03-18T04:30:23.184Z,3.92
2023-03-18T04:32:50.389Z,4.13
2023-03-18T04:35:17.074Z,4.00
2023-03-18T04:37:44.607Z,4.20
2023-03-18T04:40:12.176Z,4.40
2023-03-18T04:42:39.681Z,4.00
2023-03-18T04:45:06.895Z,4.13
2023-03-18T04:47:35.073Z,4.40
2023-03-18T04:50:02.373Z,4.88
2023-03-18T04:52:28.770Z,4.43
2023-03-18T04:54:55.514Z,4.68
2023-03-18T04:57:22.189Z,5.05
2023-03-18T04:59:48.667Z,4.57
2023-03-18T05:02:15.547Z,4.78
2023-03-18T05:04:42.065Z,4.38
2023-03-18T05:07:10.667Z,4.63
2023-03-18T05:09:37.106Z,4.25
2023-03-18T05:12:04.356Z,4.70
2023-03-18T05:14:31.105Z,4.50
2023-03-18T05:16:57.592Z,4.82
2023-03-18T05:19:25.177Z,4.70
2023-03-18T05:21:51.609Z,4.82
2023-03-18T05:24:18.070Z,5.40
2023-03-18T05:26:44.722Z,5.40
2023-03-18T05:29:11.660Z,5.05
2023-03-18T05:31:38.202Z,4.47
2023-03-18T05:34:06.793Z,4.82
2023-03-18T05:36:33.559Z,4.75
2023-03-18T05:39:00.027Z,5.43
2023-03-18T05:41:26.507Z,5.95
2023-03-18T05:43:52.898Z,6.10
2023-03-18T05:46:19.359Z,5.97
2023-03-18T05:48:45.800Z,5.35
2023-03-18T05:51:12.638Z,5.78
2023-03-18T05:53:39.357Z,6.22
2023-03-18T05:56:05.994Z,6.75
2023-03-18T05:58:32.613Z,6.28
2023-03-18T06:01:00.101Z,6.22
2023-03-18T06:03:27.569Z,6.43
2023-03-18T06:05:54.557Z,6.13
2023-03-18T06:08:21.203Z,6.28
2023-03-18T06:10:48.405Z,6.35
2023-03-18T06:13:15.187Z,6.63
2023-03-18T06:15:41.755Z,7.07
2023-03-18T06:18:08.285Z,7.72
2023-03-18T06:20:35.497Z,7.68
2023-03-18T06:23:02.279Z,6.75
2023-03-18T06:25:28.987Z,7.18
2023-03-18T06:27:55.389Z,7.32
2023-03-18T06:30:22.189Z,7.20
2023-03-18T06:32:48.683Z,7.57
2023-03-18T06:35:16.451Z,8.23
2023-03-18T06:37:43.975Z,7.95
2023-03-18T06:40:12.134Z,7.57
2023-03-18T06:42:39.185Z,7.50
2023-03-18T06:45:06.215Z,7.63
2023-03-18T06:47:32.877Z,7.70
2023-03-18T06:49:59.222Z,7.90
2023-03-18T06:52:26.467Z,7.47
2023-03-18T06:54:53.420Z,7.45
2023-03-18T06:57:20.361Z,7.55
2023-03-18T06:59:47.911Z,8.65
2023-03-18T07:02:15.416Z,8.75
2023-03-18T07:04:42.453Z,7.70
2023-03-18T07:07:09.006Z,8.63
2023-03-18T07:09:36.258Z,8.07
2023-03-18T07:12:02.648Z,7.95
2023-03-18T07:14:29.112Z,8.57
2023-03-18T07:16:56.012Z,8.80
2023-03-18T07:19:22.828Z,8.75
2023-03-18T07:21:49.486Z,9.32
2023-03-18T07:24:17.179Z,9.75
2023-03-18T07:26:44.068Z,9.07
2023-03-18T07:31:49.657Z,9.45
2023-03-18T07:34:17.803Z,9.52
2023-03-18T07:36:45.160Z,9.18
2023-03-18T07:39:12.349Z,10.55
2023-03-18T07:41:39.064Z,11.30
2023-03-18T07:44:07.730Z,11.70
2023-03-18T07:46:34.396Z,11.90
2023-03-18T07:49:01.225Z,11.77
2023-03-18T07:51:27.848Z,10.88
2023-03-18T07:53:54.369Z,11.05
2023-03-18T07:56:21.329Z,10.45
2023-03-18T07:58:48.069Z,10.10
2023-03-18T08:01:18.332Z,10.88
2023-03-18T08:03:46.531Z,11.40
2023-03-18T08:06:15.340Z,11.73
2023-03-18T08:08:43.048Z,12.70
2023-03-18T08:11:10.297Z,13.18
2023-03-18T08:13:37.741Z,13.15
2023-03-18T08:16:04.826Z,13.48
2023-03-18T08:18:31.375Z,14.60
2023-03-18T08:20:58.059Z,13.82
2023-03-18T08:23:25.236Z,13.20
2023-03-18T08:25:52.539Z,12.38
2023-03-18T08:28:19.809Z,11.93
2023-03-18T08:30:46.866Z,11.60
2023-03-18T08:33:13.589Z,11.77
2023-03-18T08:35:43.967Z,12.77
2023-03-18T08:38:10.466Z,11.63
2023-03-18T08:40:37.092Z,13.00
2023-03-18T08:43:03.890Z,13.65
2023-03-18T08:45:30.577Z,12.65
2023-03-18T08:47:57.246Z,13.75
2023-03-18T08:50:28.472Z,13.32
2023-03-18T08:52:59.913Z,13.65
2023-03-18T08:55:39.935Z,12.88
2023-03-18T08:58:08.258Z,13.32
2023-03-18T09:00:37.714Z,13.13
2023-03-18T09:03:05.197Z,12.93
2023-03-18T09:05:32.973Z,13.48
2023-03-18T09:08:00.357Z,13.10
2023-03-18T09:10:27.530Z,13.10
2023-03-18T09:12:54.053Z,12.25
2023-03-18T09:15:20.732Z,11.27
2023-03-18T09:18:00.416Z,11.88
2023-03-18T09:20:30.557Z,12.65
2023-03-18T09:22:57.551Z,12.85
2023-03-18T09:25:24.710Z,11.88
2023-03-18T09:27:51.901Z,12.18
2023-03-18T09:30:19.187Z,11.55
2023-03-18T09:32:45.852Z,12.68
2023-03-18T09:35:13.412Z,13.25
2023-03-18T09:37:40.641Z,13.85
2023-03-18T09:40:08.644Z,12.73
2023-03-18T09:42:55.389Z,12.73
2023-03-18T09:45:27.509Z,11.45
2023-03-18T09:48:09.669Z,13.40
2023-03-18T09:50:45.146Z,12.30
2023-03-18T09:53:20.698Z,13.10
2023-03-18T09:55:58.965Z,12.48
2023-03-18T09:59:07.741Z,12.88
2023-03-18T10:01:39.326Z,12.27
2023-03-18T10:04:28.635Z,13.68
2023-03-18T10:07:01.989Z,13.25
2023-03-18T10:09:39.791Z,13.38
2023-03-18T10:12:23.910Z,13.82
2023-03-18T10:15:02.041Z,13.55
2023-03-18T10:17:38.834Z,13.35
2023-03-18T10:20:15.579Z,14.55
2023-03-18T10:23:01.932Z,14.30
2023-03-18T10:25:46.968Z,13.35
2023-03-18T10:28:50.686Z,11.40
2023-03-18T10:34:23.815Z,11.88
2023-03-18T10:37:38.348Z,12.70
2023-03-18T10:40:17.179Z,12.55
2023-03-18T10:42:44.748Z,12.70
2023-03-18T10:45:28.173Z,12.13
2023-03-18T10:48:06.253Z,10.57
2023-03-18T10:50:37.198Z,11.30
2023-03-18T10:53:21.778Z,10.32
2023-03-18T10:56:07.012Z,10.23
2023-03-18T10:58:34.345Z,10.05
2023-03-18T11:01:01.115Z,10.30
2023-03-18T11:03:33.116Z,9.95
2023-03-18T11:06:04.225Z,8.95
2023-03-18T11:08:34.482Z,9.63
2023-03-18T11:11:17.559Z,9.45
2023-03-18T11:13:55.952Z,8.55
2023-03-18T11:16:47.129Z,8.70
2023-03-18T11:19:41.803Z,8.68
2023-03-18T11:22:19.460Z,7.80
2023-03-18T11:24:46.163Z,7.32
2023-03-18T11:27:18.359Z,6.13
2023-03-18T11:29:53.688Z,6.28
2023-03-18T11:33:02.757Z,5.72
2023-03-18T11:35:39.491Z,5.30
2023-03-18T11:38:07.584Z,5.75
2023-03-18T11:40:34.478Z,4.90
2023-03-18T11:43:16.706Z,5.30
2023-03-18T11:45:48.961Z,5.47
2023-03-18T11:48:22.797Z,5.15
2023-03-18T11:51:19.289Z,4.22
2023-03-18T11:53:52.619Z,4.28
2023-03-18T11:56:35.158Z,3.42
2023-03-18T11:59:10.730Z,3.65
2023-03-18T12:02:02.241Z,3.63
2023-03-18T12:04:31.494Z,3.22
2023-03-18T12:07:01.371Z,3.20
2023-03-18T12:10:24.358Z,3.53
2023-03-18T12:13:15.258Z,3.97
2023-03-18T12:16:03.865Z,2.88
2023-03-18T12:19:05.589Z,2.70
2023-03-18T12:21:44.572Z,2.50
2023-03-18T12:24:19.057Z,2.65
2023-03-18T12:26:51.571Z,3.00
2023-03-18T12:29:42.400Z,2.50
2023-03-18T12:32:21.356Z,2.38
2023-03-18T12:35:03.540Z,2.50
2023-03-18T12:38:02.110Z,2.25
2023-03-18T12:40:34.007Z,2.10
2023-03-18T12:43:19.246Z,2.22
2023-03-18T12:45:49.591Z,2.60
2023-03-18T12:48:42.673Z,2.50
2023-03-18T12:51:14.976Z,2.78
2023-03-18T12:53:49.071Z,2.78
2023-03-18T12:56:30.141Z,2.95
2023-03-18T12:59:15.467Z,2.70
2023-03-18T13:01:53.285Z,2.85
2023-03-18T13:04:23.241Z,3.75
2023-03-18T13:07:14.641Z,3.53
2023-03-18T13:09:48.751Z,3.35
2023-03-18T13:12:27.323Z,3.60
2023-03-18T13:15:04.718Z,3.63
2023-03-18T13:17:44.624Z,4.00
2023-03-18T13:20:26.961Z,4.10
2023-03-18T13:23:06.826Z,4.03
2023-03-18T13:25:44.827Z,4.47
2023-03-18T13:28:11.328Z,4.63
2023-03-18T13:31:04.542Z,4.05
2023-03-18T13:36:06.392Z,5.07
2023-03-18T13:38:50.300Z,4.68
2023-03-18T13:41:38.446Z,4.40
2023-03-18T13:44:12.800Z,4.82
2023-03-18T13:46:41.193Z,4.50
2023-03-18T13:49:18.958Z,4.43
2023-03-18T13:51:52.335Z,4.18
2023-03-18T13:54:20.483Z,4.32
2023-03-18T13:56:52.985Z,4.15
2023-03-18T13:59:34.543Z,4.05
2023-03-18T14:02:25.504Z,3.40
2023-03-18T14:04:53.127Z,3.63
2023-03-18T14:07:21.507Z,3.63
2023-03-18T14:09:52.532Z,3.70
2023-03-18T14:12:28.674Z,3.45
2023-03-18T14:15:02.545Z,3.55
2023-03-18T14:17:38.502Z,3.80
2023-03-18T14:20:17.652Z,3.83
2023-03-18T14:22:46.070Z,3.42
2023-03-18T14:25:20.040Z,3.42
2023-03-18T14:28:14.571Z,3.22
2023-03-18T14:30:54.677Z,3.17
2023-03-18T14:33:21.768Z,3.13
2023-03-18T14:36:10.113Z,2.85
2023-03-18T14:39:02.865Z,3.03
2023-03-18T14:41:32.570Z,3.00
2023-03-18T14:44:21.843Z,3.20
2023-03-18T14:46:51.675Z,3.40
2023-03-18T14:49:47.275Z,3.33
2023-03-18T14:52:22.596Z,2.58
2023-03-18T14:54:52.462Z,2.70
2023-03-18T14:57:22.246Z,3.25
2023-03-18T14:59:48.656Z,3.20
2023-03-18T15:02:26.042Z,3.10
2023-03-18T15:04:55.269Z,2.60
2023-03-18T15:07:37.032Z,2.80
2023-03-18T15:10:10.394Z,3.03
2023-03-18T15:12:37.485Z,3.17
2023-03-18T15:15:12.753Z,3.05
2023-03-18T15:17:39.456Z,3.38
2023-03-18T15:20:06.608Z,2.70
2023-03-18T15:22:34.707Z,2.90
2023-03-18T15:25:04.471Z,2.40
2023-03-18T15:27:33.910Z,2.80
2023-03-18T15:30:02.564Z,2.53
2023-03-18T15:32:44.839Z,2.50
2023-03-18T15:35:11.315Z,2.37
2023-03-18T15:37:41.027Z,2.20
2023-03-18T15:40:22.393Z,2.70
2023-03-18T15:42:49.544Z,2.17
2023-03-18T15:45:20.257Z,2.30
2023-03-18T15:47:47.425Z,2.10
2023-03-18T15:50:25.438Z,1.88
2023-03-18T15:53:03.039Z,2.13
2023-03-18T15:55:37.298Z,2.65
2023-03-18T15:58:15.515Z,2.25
2023-03-18T16:00:41.957Z,2.20
2023-03-18T16:03:23.923Z,2.03
2023-03-18T16:05:52.049Z,2.03
2023-03-18T16:08:20.979Z,2.20
2023-03-18T16:10:49.958Z,2.28
2023-03-18T16:13:24.383Z,1.98
2023-03-18T16:15:52.567Z,2.20
2023-03-18T16:18:21.006Z,2.60
2023-03-18T16:20:48.739Z,1.80
2023-03-18T16:23:16.940Z,2.03
2023-03-18T16:25:45.647Z,2.30
2023-03-18T16:28:18.310Z,2.03
2023-03-18T16:30:44.857Z,2.17
2023-03-18T16:33:14.490Z,2.10
2023-03-18T16:35:41.237Z,2.75
2023-03-18T16:38:16.356Z,2.92
2023-03-18T16:40:43.965Z,2.60
2023-03-18T16:43:19.144Z,3.10
2023-03-18T16:45:47.178Z,3.20
2023-03-18T16:48:17.322Z,2.88
2023-03-18T16:50:47.340Z,4.15
2023-03-18T16:53:22.581Z,2.80
2023-03-18T16:55:52.678Z,3.78
2023-03-18T16:58:25.201Z,3.70
2023-03-18T17:00:51.672Z,2.92
2023-03-18T17:03:19.172Z,2.50
2023-03-18T17:05:50.189Z,2.20
2023-03-18T17:08:18.392Z,2.65
2023-03-18T17:10:45.940Z,3.35
2023-03-18T17:13:18.983Z,3.00
2023-03-18T17:18:20.471Z,3.83
2023-03-18T17:20:47.990Z,4.43
2023-03-18T17:23:18.951Z,4.13
2023-03-18T17:25:49.325Z,4.20
2023-03-18T17:28:22.527Z,3.58
2023-03-18T17:30:51.020Z,4.15
2023-03-18T17:33:30.912Z,3.63
2023-03-18T17:35:58.640Z,2.80
2023-03-18T17:38:25.813Z,2.85
2023-03-18T17:40:53.198Z,3.17
2023-03-18T17:43:28.788Z,2.67
2023-03-18T17:45:57.346Z,2.60
2023-03-18T17:48:26.297Z,2.58
2023-03-18T17:50:55.799Z,1.88
2023-03-18T17:53:26.020Z,1.90
2023-03-18T17:55:54.546Z,1.42
2023-03-18T17:58:23.540Z,1.42
2023-03-18T18:00:51.672Z,1.20
2023-03-18T18:03:27.089Z,0.80
2023-03-18T18:05:54.691Z,1.17
2023-03-18T18:08:22.818Z,1.15
2023-03-18T18:10:50.184Z,0.65
2023-03-18T18:13:21.585Z,0.70
2023-03-18T18:15:51.440Z,0.88
2023-03-18T18:18:25.238Z,1.00
2023-03-18T18:20:56.884Z,0.70
2023-03-18T18:23:28.783Z,1.00
2023-03-18T18:26:00.763Z,0.70
2023-03-18T18:28:36.103Z,0.80
2023-03-18T18:31:04.301Z,0.70
2023-03-18T18:33:32.138Z,0.80
2023-03-18T18:35:59.137Z,0.50
2023-03-18T18:38:25.834Z,0.70
2023-03-18T18:40:53.612Z,0.77
2023-03-18T18:43:21.466Z,0.60
2023-03-18T18:45:49.429Z,0.75
2023-03-18T18:48:17.888Z,0.90
2023-03-18T18:50:45.520Z,1.20
2023-03-18T18:53:26.008Z,1.17
2023-03-18T18:55:54.493Z,0.90
2023-03-18T18:58:26.513Z,0.90
2023-03-18T19:00:52.959Z,0.77
2023-03-18T19:03:22.267Z,0.80
2023-03-18T19:05:54.498Z,0.60
2023-03-18T19:08:34.158Z,0.80
2023-03-18T19:11:05.582Z,0.73
2023-03-18T19:13:34.130Z,0.70
2023-03-18T19:16:03.861Z,0.60
2023-03-18T19:18:40.948Z,0.85
2023-03-18T19:21:08.039Z,0.80
2023-03-18T19:23:35.513Z,0.80
2023-03-18T19:26:03.940Z,0.90
2023-03-18T19:28:57.783Z,1.48
2023-03-18T19:31:27.106Z,1.75
2023-03-18T19:33:54.382Z,2.20
2023-03-18T19:36:23.630Z,2.63
2023-03-18T19:38:51.168Z,1.88
2023-03-18T19:41:17.625Z,2.05
2023-03-18T19:43:44.236Z,2.15
2023-03-18T19:46:18.100Z,1.73
2023-03-18T19:48:44.970Z,1.45
2023-03-18T19:51:15.318Z,1.77
2023-03-18T19:53:46.308Z,1.67
2023-03-18T19:56:27.304Z,1.73
2023-03-18T19:58:57.067Z,2.00
2023-03-18T20:01:24.842Z,1.60
2023-03-18T20:03:58.149Z,1.42
2023-03-18T20:06:25.337Z,1.20
2023-03-18T20:08:51.940Z,1.20
2023-03-18T20:11:22.976Z,1.08
2023-03-18T20:13:49.720Z,1.25
2023-03-18T20:16:17.877Z,1.10
2023-03-18T20:18:44.603Z,1.13
2023-03-18T20:21:27.171Z,1.25
2023-03-18T20:23:56.058Z,1.15
2023-03-18T20:26:23.057Z,1.10
2023-03-18T20:28:53.779Z,1.15
2023-03-18T20:31:20.702Z,1.20
2023-03-18T20:33:47.397Z,1.20
2023-03-18T20:36:17.766Z,1.13
2023-03-18T20:38:47.556Z,1.20
2023-03-18T20:41:19.150Z,1.10
2023-03-18T20:43:49.300Z,1.20
2023-03-18T20:46:17.096Z,1.25
2023-03-18T20:48:44.792Z,1.40
2023-03-18T20:51:24.489Z,1.30
2023-03-18T20:53:50.961Z,1.05
2023-03-18T20:56:22.420Z,1.38
2023-03-18T20:58:49.885Z,1.60
2023-03-18T21:01:18.309Z,1.50
2023-03-18T21:03:45.342Z,2.03
2023-03-18T21:06:15.009Z,1.67
2023-03-18T21:08:42.061Z,2.00
2023-03-18T21:11:27.146Z,1.80
2023-03-18T21:13:53.747Z,1.88
2023-03-18T21:16:21.152Z,2.30
2023-03-18T21:18:49.547Z,1.60
2023-03-18T21:21:25.696Z,1.67
2023-03-18T21:23:53.866Z,2.05
2023-03-18T21:26:23.353Z,2.30
2023-03-18T21:28:50.589Z,2.00
2023-03-18T21:31:27.103Z,1.80
2023-03-18T21:33:55.317Z,1.90
2023-03-18T21:36:22.516Z,1.85
2023-03-18T21:38:49.470Z,2.10
2023-03-18T21:41:21.928Z,1.90
2023-03-18T21:43:49.471Z,1.83
2023-03-18T21:46:19.499Z,1.83
2023-03-18T21:48:46.428Z,1.52
2023-03-18T21:51:37.624Z,2.72
2023-03-18T21:54:05.956Z,1.83
2023-03-18T21:56:32.708Z,2.33
2023-03-18T21:58:59.477Z,2.08
2023-03-18T22:01:32.029Z,2.53
2023-03-18T22:03:58.797Z,2.22
2023-03-18T22:06:25.621Z,2.20
2023-03-18T22:08:52.146Z,2.30
2023-03-18T22:11:22.045Z,2.20
2023-03-18T22:13:49.395Z,2.58
2023-03-18T22:16:17.822Z,2.45
2023-03-18T22:18:46.429Z,2.30
2023-03-18T22:21:23.218Z,2.53
2023-03-18T22:23:49.884Z,2.22
2023-03-18T22:26:19.066Z,2.50
2023-03-18T22:28:46.435Z,2.35
2023-03-18T22:31:19.093Z,2.45
2023-03-18T22:33:46.430Z,2.13
2023-03-18T22:36:15.497Z,2.40
2023-03-18T22:38:42.262Z,2.53
2023-03-18T22:41:19.197Z,2.47
2023-03-18T22:43:46.298Z,2.20
2023-03-18T22:46:13.012Z,2.72
2023-03-18T22:48:39.643Z,2.30
2023-03-18T22:51:06.810Z,2.75
2023-03-18T22:53:36.972Z,2.58
2023-03-18T22:56:15.764Z,2.20
2023-03-18T22:58:42.479Z,2.58
2023-03-18T23:01:20.970Z,2.72
2023-03-18T23:03:47.722Z,2.38
2023-03-18T23:06:18.312Z,2.70
2023-03-18T23:08:45.665Z,2.90
2023-03-18T23:11:13.315Z,3.35
2023-03-18T23:13:44.922Z,2.80
2023-03-18T23:16:16.936Z,2.85
2023-03-18T23:18:44.093Z,2.92
2023-03-18T23:21:16.742Z,2.92
2023-03-18T23:23:43.511Z,3.40
2023-03-18T23:26:10.033Z,3.35
2023-03-18T23:28:44.577Z,3.25
2023-03-18T23:31:11.923Z,3.58
2023-03-18T23:33:38.695Z,3.03
2023-03-18T23:36:05.681Z,3.47
2023-03-18T23:38:32.259Z,3.90
2023-03-18T23:40:58.844Z,3.67
2023-03-18T23:43:25.829Z,3.85
2023-03-18T23:45:52.455Z,3.85
2023-03-18T23:48:19.014Z,4.20
2023-03-18T23:50:46.109Z,4.40
2023-03-18T23:53:12.694Z,4.50
2023-03-18T23:55:39.260Z,4.20
2023-03-18T23:58:05.876Z,4.60
